createdAt,value
2017-12-10T00:00:42.210Z,3.10
2017-12-10T00:03:10.555Z,3.10
2017-12-10T00:05:40.369Z,3.00
2017-12-10T00:08:09.549Z,2.90
2017-12-10T00:10:38.523Z,2.90
2017-12-10T00:13:06.839Z,2.70
2017-12-10T00:15:35.920Z,2.40
2017-12-10T00:18:04.255Z,2.40
2017-12-10T00:20:32.581Z,2.40
2017-12-10T00:23:00.907Z,2.30
2017-12-10T00:25:29.256Z,2.30
2017-12-10T00:27:58.327Z,2.30
2017-12-10T00:30:26.661Z,2.30
2017-12-10T00:32:54.979Z,2.40
2017-12-10T00:35:23.415Z,2.40
2017-12-10T00:37:52.533Z,2.40
2017-12-10T00:40:20.889Z,2.40
2017-12-10T00:42:49.999Z,2.40
2017-12-10T00:45:18.343Z,2.40
2017-12-10T00:47:46.669Z,2.40
2017-12-10T00:50:14.998Z,2.40
2017-12-10T00:52:43.319Z,2.40
2017-12-10T00:55:11.654Z,2.40
2017-12-10T00:57:40.013Z,2.50
2017-12-10T01:00:08.345Z,2.50
2017-12-10T01:02:37.435Z,2.50
2017-12-10T01:05:05.793Z,2.50
2017-12-10T01:07:34.135Z,2.50
2017-12-10T01:10:02.497Z,2.50
2017-12-10T01:12:30.881Z,2.50
2017-12-10T01:14:59.964Z,2.40
2017-12-10T01:17:29.065Z,2.40
2017-12-10T01:19:58.179Z,2.40
2017-12-10T01:22:27.355Z,2.40
2017-12-10T01:24:56.440Z,2.40
2017-12-10T01:27:24.770Z,2.40
2017-12-10T01:29:53.094Z,2.40
2017-12-10T01:32:21.435Z,2.40
2017-12-10T01:34:49.763Z,2.40
2017-12-10T01:37:18.115Z,2.40
2017-12-10T01:39:46.424Z,2.40
2017-12-10T01:42:14.808Z,2.40
2017-12-10T01:44:43.113Z,2.40
2017-12-10T01:47:12.305Z,2.50
2017-12-10T01:49:40.623Z,2.40
2017-12-10T01:52:08.935Z,2.50
2017-12-10T01:54:37.247Z,2.50
2017-12-10T01:57:05.587Z,2.40
2017-12-10T01:59:33.915Z,2.50
2017-12-10T02:02:03.014Z,2.40
2017-12-10T02:04:32.129Z,2.40
2017-12-10T02:07:01.358Z,2.40
2017-12-10T02:09:29.698Z,2.40
2017-12-10T02:11:58.768Z,2.40
2017-12-10T02:14:27.080Z,2.40
2017-12-10T02:16:55.445Z,2.40
2017-12-10T02:19:23.767Z,2.50
2017-12-10T02:21:52.089Z,2.50
2017-12-10T02:24:20.392Z,2.50
2017-12-10T02:26:49.481Z,2.50
2017-12-10T02:29:17.806Z,2.50
2017-12-10T02:31:46.132Z,2.50
2017-12-10T02:34:14.438Z,2.50
2017-12-10T02:36:42.760Z,2.50
2017-12-10T02:39:11.073Z,2.50
2017-12-10T02:41:39.374Z,2.50
2017-12-10T02:44:08.480Z,2.40
2017-12-10T02:46:37.052Z,2.40
2017-12-10T02:49:05.381Z,2.40
2017-12-10T02:51:33.706Z,2.40
2017-12-10T02:54:02.018Z,2.40
2017-12-10T02:56:31.121Z,2.30
2017-12-10T02:59:00.236Z,2.30
2017-12-10T03:01:28.548Z,2.20
2017-12-10T03:03:56.864Z,2.20
2017-12-10T03:06:25.972Z,2.20
2017-12-10T03:08:55.036Z,2.20
2017-12-10T03:11:23.380Z,2.10
2017-12-10T03:13:51.702Z,2.10
2017-12-10T03:16:20.010Z,2.10
2017-12-10T03:18:49.138Z,2.10
2017-12-10T03:21:17.462Z,2.10
2017-12-10T03:23:45.788Z,2.10
2017-12-10T03:26:14.120Z,2.10
2017-12-10T03:28:42.464Z,2.20
2017-12-10T03:31:10.779Z,2.20
2017-12-10T03:33:39.098Z,2.30
2017-12-10T03:36:07.417Z,2.30
2017-12-10T03:38:35.762Z,2.40
2017-12-10T03:41:04.112Z,2.40
2017-12-10T03:43:32.451Z,2.40
2017-12-10T03:46:02.776Z,2.50
2017-12-10T03:48:31.120Z,2.60
2017-12-10T03:51:00.208Z,2.60
2017-12-10T03:53:29.410Z,2.60
2017-12-10T03:55:58.671Z,2.60
2017-12-10T03:58:28.544Z,2.60
2017-12-10T04:00:57.694Z,2.60
2017-12-10T04:03:26.046Z,2.60
2017-12-10T04:05:54.392Z,2.60
2017-12-10T04:08:23.458Z,2.50
2017-12-10T04:10:51.782Z,2.50
2017-12-10T04:13:20.920Z,2.40
2017-12-10T04:15:49.254Z,2.40
2017-12-10T04:18:18.348Z,2.30
2017-12-10T04:20:47.444Z,2.30
2017-12-10T04:23:16.534Z,2.30
2017-12-10T04:25:44.858Z,2.20
2017-12-10T04:28:13.187Z,2.20
2017-12-10T04:30:41.540Z,2.10
2017-12-10T04:33:09.880Z,2.10
2017-12-10T04:35:38.964Z,2.00
2017-12-10T04:38:08.064Z,2.00
2017-12-10T04:40:37.168Z,2.00
2017-12-10T04:43:06.256Z,2.00
2017-12-10T04:45:34.589Z,2.00
2017-12-10T04:48:02.885Z,2.00
2017-12-10T04:50:31.216Z,2.00
2017-12-10T04:53:00.318Z,2.00
2017-12-10T04:55:28.632Z,2.00
2017-12-10T04:57:56.970Z,2.00
2017-12-10T05:00:26.074Z,1.90
2017-12-10T05:02:55.136Z,1.90
2017-12-10T05:05:23.468Z,1.90
2017-12-10T05:07:51.794Z,1.90
2017-12-10T05:10:20.113Z,1.90
2017-12-10T05:12:49.232Z,1.90
2017-12-10T05:15:17.543Z,1.90
2017-12-10T05:17:45.859Z,2.00
2017-12-10T05:20:14.940Z,2.10
2017-12-10T05:22:43.232Z,2.10
2017-12-10T05:25:11.588Z,2.20
2017-12-10T05:27:39.884Z,2.20
2017-12-10T05:30:08.196Z,2.30
2017-12-10T05:32:37.294Z,2.30
2017-12-10T05:35:06.392Z,2.30
2017-12-10T05:37:34.720Z,2.30
2017-12-10T05:40:03.068Z,2.30
2017-12-10T05:42:31.410Z,2.30
2017-12-10T05:44:59.738Z,2.30
2017-12-10T05:47:28.062Z,2.30
2017-12-10T05:49:56.410Z,2.30
2017-12-10T05:52:24.715Z,2.30
2017-12-10T05:54:53.020Z,2.30
2017-12-10T05:57:21.342Z,2.30
2017-12-10T05:59:49.666Z,2.30
2017-12-10T06:02:17.978Z,2.40
2017-12-10T06:04:47.070Z,2.40
2017-12-10T06:07:16.164Z,2.50
2017-12-10T06:09:45.254Z,2.50
2017-12-10T06:12:15.085Z,2.50
2017-12-10T06:14:44.187Z,2.50
2017-12-10T06:17:13.286Z,2.60
2017-12-10T06:19:41.634Z,2.60
2017-12-10T06:22:09.958Z,2.60
2017-12-10T06:24:38.288Z,2.60
2017-12-10T06:27:08.395Z,2.70
2017-12-10T06:29:36.756Z,2.70
2017-12-10T06:32:05.079Z,2.70
2017-12-10T06:34:33.417Z,2.70
2017-12-10T06:37:01.722Z,2.80
2017-12-10T06:39:30.045Z,2.80
2017-12-10T06:41:59.156Z,2.80
2017-12-10T06:44:28.288Z,2.90
2017-12-10T06:46:56.635Z,2.80
2017-12-10T06:49:25.714Z,2.90
2017-12-10T06:51:54.052Z,2.90
2017-12-10T06:54:22.359Z,2.90
2017-12-10T06:56:50.710Z,2.90
2017-12-10T06:59:19.728Z,2.90
2017-12-10T07:01:48.110Z,2.90
2017-12-10T07:04:16.400Z,2.90
2017-12-10T07:06:45.617Z,3.00
2017-12-10T07:09:14.729Z,3.00
2017-12-10T07:11:43.053Z,3.00
2017-12-10T07:14:11.430Z,3.00
2017-12-10T07:16:39.832Z,3.00
2017-12-10T07:19:08.956Z,3.00
2017-12-10T07:21:37.309Z,3.00
2017-12-10T07:24:05.630Z,3.10
2017-12-10T07:26:34.734Z,3.10
2017-12-10T07:29:03.085Z,3.00
2017-12-10T07:31:31.397Z,3.10
2017-12-10T07:33:59.761Z,3.10
2017-12-10T07:36:28.859Z,3.10
2017-12-10T07:38:57.153Z,3.10
2017-12-10T07:41:26.240Z,3.10
2017-12-10T07:43:54.555Z,3.10
2017-12-10T07:46:22.867Z,3.10
2017-12-10T07:48:51.193Z,3.10
2017-12-10T07:51:20.285Z,3.10
2017-12-10T07:53:49.357Z,3.10
2017-12-10T07:56:17.693Z,3.10
2017-12-10T07:58:46.009Z,3.10
2017-12-10T08:01:14.332Z,3.10
2017-12-10T08:03:43.403Z,3.10
2017-12-10T08:06:11.739Z,3.10
2017-12-10T08:08:40.061Z,3.10
2017-12-10T08:11:08.391Z,3.10
2017-12-10T08:13:36.758Z,3.10
2017-12-10T08:16:05.091Z,3.10
2017-12-10T08:18:33.411Z,3.00
2017-12-10T08:21:02.511Z,3.10
2017-12-10T08:23:33.049Z,3.00
2017-12-10T08:26:02.127Z,3.10
2017-12-10T08:28:30.437Z,3.00
2017-12-10T08:30:58.777Z,3.10
2017-12-10T08:33:27.117Z,3.10
2017-12-10T08:35:55.443Z,3.00
2017-12-10T08:38:23.767Z,3.00
2017-12-10T08:40:52.073Z,3.00
2017-12-10T08:43:20.367Z,2.90
2017-12-10T08:45:48.709Z,2.90
2017-12-10T08:48:17.055Z,2.90
2017-12-10T08:50:45.381Z,2.80
2017-12-10T08:53:13.759Z,2.80
2017-12-10T08:55:42.061Z,2.80
2017-12-10T08:58:10.391Z,2.90
2017-12-10T09:00:39.479Z,2.90
2017-12-10T09:03:07.807Z,2.90
2017-12-10T09:05:36.125Z,2.90
2017-12-10T09:08:04.475Z,2.90
2017-12-10T09:10:32.793Z,3.00
2017-12-10T09:13:01.907Z,3.00
2017-12-10T09:15:30.977Z,3.00
2017-12-10T09:17:59.283Z,3.00
2017-12-10T09:20:28.373Z,3.00
2017-12-10T09:22:56.734Z,3.00
2017-12-10T09:25:25.069Z,3.10
2017-12-10T09:27:53.423Z,3.00
2017-12-10T09:30:22.516Z,3.10
2017-12-10T09:32:51.601Z,3.10
2017-12-10T09:35:19.980Z,3.10
2017-12-10T09:37:48.305Z,3.10
2017-12-10T09:40:16.615Z,3.20
2017-12-10T09:42:44.925Z,3.20
2017-12-10T09:45:13.231Z,3.20
2017-12-10T09:47:42.355Z,3.20
2017-12-10T09:50:10.687Z,3.20
2017-12-10T09:52:38.995Z,3.20
2017-12-10T09:55:07.291Z,3.20
2017-12-10T09:57:35.623Z,3.20
2017-12-10T10:00:03.963Z,3.20
2017-12-10T10:02:32.283Z,3.20
2017-12-10T10:05:00.603Z,3.20
2017-12-10T10:07:28.931Z,3.20
2017-12-10T10:09:57.293Z,3.20
2017-12-10T10:12:25.601Z,3.20
2017-12-10T10:14:53.939Z,3.10
2017-12-10T10:17:22.263Z,3.10
2017-12-10T10:19:50.580Z,3.10
2017-12-10T10:22:19.648Z,3.00
2017-12-10T10:24:47.989Z,3.00
2017-12-10T10:27:16.304Z,3.00
2017-12-10T10:29:44.625Z,3.00
2017-12-10T10:32:13.743Z,2.90
2017-12-10T10:34:42.052Z,2.90
2017-12-10T10:37:10.371Z,2.90
2017-12-10T10:39:40.407Z,2.80
2017-12-10T10:42:08.737Z,2.80
2017-12-10T10:44:37.055Z,2.80
2017-12-10T10:47:06.175Z,2.70
2017-12-10T10:49:35.722Z,2.70
2017-12-10T10:52:04.056Z,2.70
2017-12-10T10:54:32.399Z,2.70
2017-12-10T10:57:00.779Z,2.60
2017-12-10T10:59:29.103Z,2.50
2017-12-10T11:01:57.449Z,2.50
2017-12-10T11:04:25.824Z,2.50
2017-12-10T11:06:54.159Z,2.40
2017-12-10T11:09:22.491Z,2.40
2017-12-10T11:11:50.813Z,2.30
2017-12-10T11:14:19.146Z,2.30
2017-12-10T11:16:47.444Z,2.20
2017-12-10T11:19:17.381Z,2.20
2017-12-10T11:21:45.693Z,2.20
2017-12-10T11:24:13.996Z,2.20
2017-12-10T11:26:42.308Z,2.10
2017-12-10T11:29:11.387Z,1.90
2017-12-10T11:31:39.722Z,1.90
2017-12-10T11:34:08.011Z,1.80
2017-12-10T11:36:36.322Z,1.80
2017-12-10T11:39:04.651Z,1.80
2017-12-10T11:41:33.024Z,1.70
2017-12-10T11:44:01.369Z,1.60
2017-12-10T11:46:29.733Z,1.60
2017-12-10T11:48:58.069Z,1.60
2017-12-10T11:51:26.393Z,1.60
2017-12-10T11:53:54.704Z,1.50
2017-12-10T11:56:23.794Z,1.50
2017-12-10T11:58:54.245Z,1.50
2017-12-10T12:01:23.337Z,1.50
2017-12-10T12:03:53.490Z,1.50
2017-12-10T12:06:21.813Z,1.40
2017-12-10T12:08:50.163Z,1.40
2017-12-10T12:11:19.318Z,1.40
2017-12-10T12:13:48.446Z,1.40
2017-12-10T12:16:16.815Z,1.30
2017-12-10T12:18:45.132Z,1.40
2017-12-10T12:21:13.439Z,1.40
2017-12-10T12:23:41.755Z,1.30
2017-12-10T12:26:10.164Z,1.30
2017-12-10T12:28:38.463Z,1.30
2017-12-10T12:31:06.779Z,1.30
2017-12-10T12:33:35.104Z,1.30
2017-12-10T12:36:03.409Z,1.30
2017-12-10T12:38:31.734Z,1.30
2017-12-10T12:41:00.827Z,1.30
2017-12-10T12:43:29.904Z,1.30
2017-12-10T12:45:58.233Z,1.30
2017-12-10T12:48:26.691Z,1.30
2017-12-10T12:50:55.007Z,1.40
2017-12-10T12:53:23.329Z,1.50
2017-12-10T12:55:51.657Z,1.60
2017-12-10T12:58:19.981Z,1.60
2017-12-10T13:00:48.475Z,1.70
2017-12-10T13:03:16.833Z,1.80
2017-12-10T13:05:45.164Z,1.80
2017-12-10T13:08:13.486Z,1.90
2017-12-10T13:10:41.784Z,2.00
2017-12-10T13:13:10.100Z,2.00
2017-12-10T13:15:39.189Z,1.90
2017-12-10T13:18:08.263Z,1.80
2017-12-10T13:20:36.609Z,1.80
2017-12-10T13:23:04.949Z,1.70
2017-12-10T13:25:34.033Z,1.50
2017-12-10T13:28:02.334Z,1.50
2017-12-10T13:30:31.452Z,1.40
2017-12-10T13:32:59.799Z,1.40
2017-12-10T13:35:28.890Z,1.30
2017-12-10T13:37:57.360Z,1.30
2017-12-10T13:40:25.851Z,1.30
2017-12-10T13:42:54.141Z,1.30
2017-12-10T13:45:22.512Z,1.30
2017-12-10T13:47:50.830Z,1.30
2017-12-10T13:50:19.152Z,1.30
2017-12-10T13:52:47.472Z,1.30
2017-12-10T13:55:15.805Z,1.30
2017-12-10T13:57:44.130Z,1.40
2017-12-10T14:00:13.218Z,1.40
2017-12-10T14:02:42.304Z,1.40
2017-12-10T14:05:10.624Z,1.40
2017-12-10T14:07:39.717Z,1.40
2017-12-10T14:10:08.794Z,1.40
2017-12-10T14:12:37.094Z,1.40
2017-12-10T14:15:06.190Z,1.40
2017-12-10T14:17:35.262Z,1.40
2017-12-10T14:20:03.586Z,1.40
2017-12-10T14:22:31.952Z,1.40
2017-12-10T14:25:01.110Z,1.30
2017-12-10T14:27:29.445Z,1.30
2017-12-10T14:29:57.768Z,1.30
2017-12-10T14:32:26.120Z,1.30
2017-12-10T14:34:54.428Z,1.20
2017-12-10T14:37:22.755Z,1.20
2017-12-10T14:39:51.844Z,1.10
2017-12-10T14:42:20.952Z,1.20
2017-12-10T14:44:49.314Z,1.10
2017-12-10T14:47:17.645Z,1.20
2017-12-10T14:49:46.335Z,1.20
2017-12-10T14:52:14.671Z,1.20
2017-12-10T14:54:43.778Z,1.10
2017-12-10T14:57:13.606Z,1.10
2017-12-10T14:59:41.931Z,1.10
2017-12-10T15:02:10.287Z,1.10
2017-12-10T15:04:38.650Z,1.10
2017-12-10T15:07:06.968Z,1.20
2017-12-10T15:09:35.295Z,1.20
2017-12-10T15:12:03.697Z,1.20
2017-12-10T15:14:32.031Z,1.20
2017-12-10T15:17:00.343Z,1.30
2017-12-10T15:19:29.447Z,1.30
2017-12-10T15:21:57.755Z,1.30
2017-12-10T15:24:26.104Z,1.40
2017-12-10T15:26:55.176Z,1.30
2017-12-10T15:29:23.494Z,1.30
2017-12-10T15:31:51.811Z,1.30
2017-12-10T15:34:20.153Z,1.30
2017-12-10T15:36:48.475Z,1.40
2017-12-10T15:39:17.582Z,1.40
2017-12-10T15:41:45.923Z,1.40
2017-12-10T15:44:14.230Z,1.40
2017-12-10T15:46:42.541Z,1.50
2017-12-10T15:49:10.882Z,1.40
2017-12-10T15:51:39.189Z,1.50
2017-12-10T15:54:07.505Z,1.40
2017-12-10T15:56:36.600Z,1.50
2017-12-10T15:59:05.052Z,1.50
2017-12-10T16:01:33.394Z,1.50
2017-12-10T16:04:01.749Z,1.40
2017-12-10T16:06:30.118Z,1.40
2017-12-10T16:08:59.218Z,1.30
2017-12-10T16:11:28.394Z,1.30
2017-12-10T16:13:56.712Z,1.30
2017-12-10T16:16:25.030Z,1.30
2017-12-10T16:18:53.368Z,1.30
2017-12-10T16:21:21.696Z,1.20
2017-12-10T16:23:50.034Z,1.30
2017-12-10T16:26:18.367Z,1.30
2017-12-10T16:28:46.701Z,1.40
2017-12-10T16:31:15.025Z,1.40
2017-12-10T16:33:43.366Z,1.40
2017-12-10T16:36:11.708Z,1.40
2017-12-10T16:38:40.031Z,1.40
2017-12-10T16:41:08.345Z,1.50
2017-12-10T16:43:36.686Z,1.60
2017-12-10T16:46:05.000Z,1.60
2017-12-10T16:48:33.310Z,1.60
2017-12-10T16:51:01.630Z,1.70
2017-12-10T16:53:30.178Z,1.70
2017-12-10T16:55:58.504Z,1.80
2017-12-10T16:58:26.908Z,1.80
2017-12-10T17:00:55.228Z,1.80
2017-12-10T17:03:23.713Z,1.90
2017-12-10T17:05:52.810Z,1.90
2017-12-10T17:08:21.496Z,1.90
2017-12-10T17:10:50.591Z,2.00
2017-12-10T17:13:19.702Z,2.00
2017-12-10T17:15:48.814Z,2.10
2017-12-10T17:18:17.158Z,2.00
2017-12-10T17:20:45.479Z,2.10
2017-12-10T17:23:13.815Z,2.10
2017-12-10T17:25:42.140Z,2.10
2017-12-10T17:28:10.476Z,2.20
2017-12-10T17:30:38.796Z,2.20
2017-12-10T17:33:07.108Z,2.20
2017-12-10T17:35:35.460Z,2.20
2017-12-10T17:38:03.836Z,2.20
2017-12-10T17:40:32.190Z,2.20
2017-12-10T17:43:00.548Z,2.20
2017-12-10T17:45:28.912Z,2.20
2017-12-10T17:47:57.270Z,2.20
2017-12-10T17:50:25.612Z,2.20
2017-12-10T17:52:53.939Z,2.20
2017-12-10T17:55:22.332Z,2.20
2017-12-10T17:57:50.660Z,2.20
2017-12-10T18:00:19.772Z,2.20
2017-12-10T18:02:48.095Z,2.20
2017-12-10T18:05:16.429Z,2.20
2017-12-10T18:07:45.521Z,2.10
2017-12-10T18:10:14.638Z,2.10
2017-12-10T18:12:44.373Z,2.10
2017-12-10T18:15:12.864Z,2.10
2017-12-10T18:17:41.194Z,2.00
2017-12-10T18:20:09.549Z,2.00
2017-12-10T18:22:37.878Z,1.90
2017-12-10T18:25:06.941Z,1.80
2017-12-10T18:27:35.288Z,1.80
2017-12-10T18:30:03.596Z,1.70
2017-12-10T18:32:31.934Z,1.70
2017-12-10T18:35:01.289Z,1.70
2017-12-10T18:37:29.712Z,1.70
2017-12-10T18:39:58.211Z,1.70
2017-12-10T18:42:27.599Z,1.70
2017-12-10T18:44:56.014Z,1.70
2017-12-10T18:47:24.361Z,1.70
2017-12-10T18:49:54.340Z,1.60
2017-12-10T18:52:22.714Z,1.60
2017-12-10T18:54:51.160Z,1.70
2017-12-10T18:57:19.526Z,1.70
2017-12-10T18:59:47.905Z,1.70
2017-12-10T19:02:16.995Z,1.80
2017-12-10T19:04:45.318Z,1.80
2017-12-10T19:07:13.686Z,1.90
2017-12-10T19:09:42.033Z,1.90
2017-12-10T19:12:11.132Z,1.90
2017-12-10T19:14:40.231Z,1.90
2017-12-10T19:17:09.303Z,1.90
2017-12-10T19:19:37.631Z,1.90
2017-12-10T19:22:06.041Z,1.90
2017-12-10T19:24:34.361Z,1.90
2017-12-10T19:27:02.664Z,1.90
2017-12-10T19:29:30.983Z,1.90
2017-12-10T19:31:59.347Z,1.90
2017-12-10T19:34:27.712Z,1.90
2017-12-10T19:36:56.073Z,1.90
2017-12-10T19:39:25.173Z,1.90
2017-12-10T19:41:54.286Z,1.80
2017-12-10T19:44:23.393Z,1.80
2017-12-10T19:46:52.234Z,1.80
2017-12-10T19:49:20.625Z,1.80
2017-12-10T19:51:49.760Z,1.80
2017-12-10T19:54:18.882Z,1.70
2017-12-10T19:56:47.231Z,1.70
2017-12-10T19:59:16.338Z,1.70
2017-12-10T20:01:46.382Z,1.70
2017-12-10T20:04:15.991Z,1.70
2017-12-10T20:06:44.328Z,1.70
2017-12-10T20:09:14.242Z,1.80
2017-12-10T20:11:42.557Z,1.80
2017-12-10T20:14:10.979Z,1.80
2017-12-10T20:16:42.018Z,1.80
2017-12-10T20:19:10.727Z,1.80
2017-12-10T20:21:39.074Z,1.70
2017-12-10T20:24:07.408Z,1.80
2017-12-10T20:26:36.543Z,1.80
2017-12-10T20:29:04.873Z,1.80
2017-12-10T20:31:34.003Z,1.80
2017-12-10T20:34:02.428Z,1.80
2017-12-10T20:36:31.452Z,1.70
2017-12-10T20:41:34.390Z,1.70
2017-12-10T20:44:02.727Z,1.70
2017-12-10T20:46:31.040Z,1.70
2017-12-10T20:48:59.371Z,1.70
2017-12-10T20:51:27.735Z,1.70
2017-12-10T20:53:56.725Z,1.70
2017-12-10T20:56:25.925Z,1.70
2017-12-10T20:58:55.369Z,1.70
2017-12-10T21:01:24.876Z,1.70
2017-12-10T21:03:55.039Z,1.70
2017-12-10T21:06:23.584Z,1.70
2017-12-10T21:08:52.451Z,1.70
2017-12-10T21:11:20.817Z,1.70
2017-12-10T21:13:49.135Z,1.70
2017-12-10T21:16:18.306Z,1.80
2017-12-10T21:18:46.617Z,1.80
2017-12-10T21:21:15.272Z,1.80
2017-12-10T21:23:44.509Z,1.80
2017-12-10T21:26:12.827Z,1.90
2017-12-10T21:28:41.920Z,1.90
2017-12-10T21:31:11.035Z,1.90
2017-12-10T21:33:39.340Z,1.90
2017-12-10T21:36:07.689Z,1.90
2017-12-10T21:38:36.023Z,1.90
2017-12-10T21:41:04.361Z,1.90
2017-12-10T21:43:32.729Z,1.90
2017-12-10T21:46:02.185Z,1.80
2017-12-10T21:48:30.520Z,1.80
2017-12-10T21:50:59.643Z,1.80
2017-12-10T21:53:27.961Z,1.80
2017-12-10T21:55:56.297Z,1.80
2017-12-10T21:58:24.611Z,1.70
2017-12-10T22:00:53.006Z,1.80
2017-12-10T22:03:21.377Z,1.70
2017-12-10T22:05:49.702Z,1.70
2017-12-10T22:08:18.855Z,1.70
2017-12-10T22:10:47.211Z,1.70
2017-12-10T22:13:15.976Z,1.70
2017-12-10T22:15:45.073Z,1.70
2017-12-10T22:18:14.867Z,1.70
2017-12-10T22:20:43.188Z,1.70
2017-12-10T22:23:11.587Z,1.70
2017-12-10T22:25:39.961Z,1.70
2017-12-10T22:28:08.302Z,1.70
2017-12-10T22:30:37.440Z,1.70
2017-12-10T22:33:06.615Z,1.70
2017-12-10T22:35:35.022Z,1.80
2017-12-10T22:38:03.437Z,1.80
2017-12-10T22:40:33.291Z,1.90
2017-12-10T22:43:02.405Z,1.90
2017-12-10T22:45:30.712Z,1.90
2017-12-10T22:47:59.061Z,1.90
2017-12-10T22:50:27.364Z,2.00
2017-12-10T22:52:55.684Z,2.00
2017-12-10T22:55:24.888Z,2.00
2017-12-10T22:57:53.999Z,2.10
2017-12-10T23:00:22.326Z,2.10
2017-12-10T23:02:50.656Z,2.10
2017-12-10T23:05:26.739Z,2.10
2017-12-10T23:07:55.080Z,2.10
2017-12-10T23:10:23.416Z,2.20
2017-12-10T23:12:51.746Z,2.20
2017-12-10T23:15:20.092Z,2.30
2017-12-10T23:17:48.430Z,2.30
2017-12-10T23:20:32.378Z,2.30
2017-12-10T23:23:00.704Z,2.40
2017-12-10T23:25:29.058Z,2.40
2017-12-10T23:27:57.376Z,2.40
2017-12-10T23:30:25.742Z,2.40
2017-12-10T23:32:54.078Z,2.50
2017-12-10T23:35:22.414Z,2.50
2017-12-10T23:37:50.756Z,2.50
2017-12-10T23:40:19.096Z,2.50
2017-12-10T23:42:47.540Z,2.50
2017-12-10T23:45:15.917Z,2.50
2017-12-10T23:47:44.242Z,2.50
2017-12-10T23:50:12.563Z,2.60
2017-12-10T23:52:40.892Z,2.60
2017-12-10T23:55:09.262Z,2.60
2017-12-10T23:57:37.612Z,2.60
